sensor_id;sensor_type;location;lat;lon;timestamp;P1;durP1;ratioP1;P2;durP2;ratioP2
55270;SDS011;41132;47.162;9.470;2023-02-28T00:01:27;6.53;;;3.78;;
55270;SDS011;41132;47.162;9.470;2023-02-28T00:03:52;6.97;;;3.75;;
55270;SDS011;41132;47.162;9.470;2023-02-28T00:06:18;6.53;;;3.72;;
55270;SDS011;41132;47.162;9.470;2023-02-28T00:08:43;7.10;;;3.70;;
55270;SDS011;41132;47.162;9.470;2023-02-28T00:11:10;6.90;;;3.80;;
55270;SDS011;41132;47.162;9.470;2023-02-28T00:13:38;7.20;;;3.88;;
55270;SDS011;41132;47.162;9.470;2023-02-28T00:16:10;7.78;;;4.22;;
55270;SDS011;41132;47.162;9.470;2023-02-28T00:18:38;8.38;;;4.38;;
55270;SDS011;41132;47.162;9.470;2023-02-28T00:21:04;7.13;;;3.88;;
55270;SDS011;41132;47.162;9.470;2023-02-28T00:23:30;7.28;;;3.60;;
55270;SDS011;41132;47.162;9.470;2023-02-28T00:25:55;6.07;;;3.53;;
55270;SDS011;41132;47.162;9.470;2023-02-28T00:28:21;7.05;;;4.03;;
55270;SDS011;41132;47.162;9.470;2023-02-28T00:30:47;7.13;;;3.95;;
55270;SDS011;41132;47.162;9.470;2023-02-28T00:33:12;8.73;;;3.75;;
55270;SDS011;41132;47.162;9.470;2023-02-28T00:35:38;8.05;;;3.72;;
55270;SDS011;41132;47.162;9.470;2023-02-28T00:38:03;8.40;;;4.00;;
55270;SDS011;41132;47.162;9.470;2023-02-28T00:40:29;7.45;;;4.38;;
55270;SDS011;41132;47.162;9.470;2023-02-28T00:42:55;6.63;;;3.75;;
55270;SDS011;41132;47.162;9.470;2023-02-28T00:45:20;7.32;;;3.60;;
55270;SDS011;41132;47.162;9.470;2023-02-28T00:47:45;6.78;;;4.38;;
55270;SDS011;41132;47.162;9.470;2023-02-28T00:50:14;7.65;;;4.07;;
55270;SDS011;41132;47.162;9.470;2023-02-28T00:52:43;6.53;;;3.85;;
55270;SDS011;41132;47.162;9.470;2023-02-28T00:55:09;7.30;;;4.07;;
55270;SDS011;41132;47.162;9.470;2023-02-28T01:10:30;7.05;;;3.63;;
55270;SDS011;41132;47.162;9.470;2023-02-28T01:23:17;7.78;;;3.95;;
55270;SDS011;41132;47.162;9.470;2023-02-28T01:25:43;7.88;;;4.57;;
55270;SDS011;41132;47.162;9.470;2023-02-28T01:46:09;7.57;;;4.00;;
55270;SDS011;41132;47.162;9.470;2023-02-28T01:48:48;6.68;;;3.88;;
55270;SDS011;41132;47.162;9.470;2023-02-28T01:51:31;8.25;;;4.40;;
55270;SDS011;41132;47.162;9.470;2023-02-28T01:54:03;8.30;;;4.28;;
55270;SDS011;41132;47.162;9.470;2023-02-28T01:56:38;7.75;;;3.97;;
55270;SDS011;41132;47.162;9.470;2023-02-28T01:59:17;7.07;;;4.18;;
55270;SDS011;41132;47.162;9.470;2023-02-28T02:01:48;8.80;;;4.32;;
55270;SDS011;41132;47.162;9.470;2023-02-28T02:04:14;7.00;;;4.25;;
55270;SDS011;41132;47.162;9.470;2023-02-28T02:06:40;8.18;;;3.92;;
55270;SDS011;41132;47.162;9.470;2023-02-28T02:09:09;7.93;;;4.40;;
55270;SDS011;41132;47.162;9.470;2023-02-28T02:11:35;10.10;;;4.95;;
55270;SDS011;41132;47.162;9.470;2023-02-28T02:19:58;8.73;;;4.10;;
55270;SDS011;41132;47.162;9.470;2023-02-28T02:25:31;7.32;;;4.53;;
55270;SDS011;41132;47.162;9.470;2023-02-28T02:33:34;8.43;;;4.47;;
55270;SDS011;41132;47.162;9.470;2023-02-28T02:36:30;7.47;;;4.60;;
55270;SDS011;41132;47.162;9.470;2023-02-28T02:41:39;7.78;;;4.93;;
55270;SDS011;41132;47.162;9.470;2023-02-28T02:46:45;8.68;;;5.03;;
55270;SDS011;41132;47.162;9.470;2023-02-28T02:49:21;8.13;;;5.22;;
55270;SDS011;41132;47.162;9.470;2023-02-28T02:51:51;8.98;;;4.45;;
55270;SDS011;41132;47.162;9.470;2023-02-28T02:54:26;8.43;;;4.72;;
55270;SDS011;41132;47.162;9.470;2023-02-28T02:56:56;8.05;;;4.85;;
55270;SDS011;41132;47.162;9.470;2023-02-28T02:59:25;9.00;;;4.97;;
55270;SDS011;41132;47.162;9.470;2023-02-28T03:01:53;9.95;;;5.03;;
55270;SDS011;41132;47.162;9.470;2023-02-28T03:04:23;8.50;;;4.68;;
55270;SDS011;41132;47.162;9.470;2023-02-28T03:06:51;8.40;;;4.70;;
55270;SDS011;41132;47.162;9.470;2023-02-28T03:09:20;7.53;;;5.05;;
55270;SDS011;41132;47.162;9.470;2023-02-28T03:11:50;7.97;;;4.30;;
55270;SDS011;41132;47.162;9.470;2023-02-28T03:16:47;7.30;;;4.15;;
55270;SDS011;41132;47.162;9.470;2023-02-28T03:19:35;7.82;;;4.32;;
55270;SDS011;41132;47.162;9.470;2023-02-28T03:28:04;7.80;;;4.68;;
55270;SDS011;41132;47.162;9.470;2023-02-28T03:31:06;7.93;;;4.43;;
55270;SDS011;41132;47.162;9.470;2023-02-28T03:33:38;7.28;;;3.97;;
55270;SDS011;41132;47.162;9.470;2023-02-28T03:36:09;8.43;;;4.63;;
55270;SDS011;41132;47.162;9.470;2023-02-28T03:38:40;7.18;;;4.40;;
55270;SDS011;41132;47.162;9.470;2023-02-28T03:41:14;7.38;;;4.30;;
55270;SDS011;41132;47.162;9.470;2023-02-28T03:43:48;7.50;;;4.70;;
55270;SDS011;41132;47.162;9.470;2023-02-28T03:46:19;7.93;;;5.03;;
55270;SDS011;41132;47.162;9.470;2023-02-28T03:48:56;9.43;;;4.40;;
55270;SDS011;41132;47.162;9.470;2023-02-28T03:51:27;7.97;;;4.60;;
55270;SDS011;41132;47.162;9.470;2023-02-28T03:53:54;7.72;;;4.78;;
55270;SDS011;41132;47.162;9.470;2023-02-28T03:56:47;7.38;;;4.53;;
55270;SDS011;41132;47.162;9.470;2023-02-28T03:59:23;7.50;;;4.00;;
55270;SDS011;41132;47.162;9.470;2023-02-28T04:01:55;6.32;;;3.53;;
55270;SDS011;41132;47.162;9.470;2023-02-28T04:04:23;7.95;;;4.38;;
55270;SDS011;41132;47.162;9.470;2023-02-28T04:06:49;7.20;;;4.40;;
55270;SDS011;41132;47.162;9.470;2023-02-28T04:09:16;7.82;;;4.20;;
55270;SDS011;41132;47.162;9.470;2023-02-28T04:11:42;9.80;;;4.78;;
55270;SDS011;41132;47.162;9.470;2023-02-28T04:14:10;9.43;;;4.68;;
55270;SDS011;41132;47.162;9.470;2023-02-28T04:16:37;7.85;;;4.30;;
55270;SDS011;41132;47.162;9.470;2023-02-28T04:19:04;7.63;;;4.63;;
55270;SDS011;41132;47.162;9.470;2023-02-28T04:21:38;7.90;;;4.35;;
55270;SDS011;41132;47.162;9.470;2023-02-28T04:26:33;7.25;;;4.25;;
55270;SDS011;41132;47.162;9.470;2023-02-28T04:29:01;7.32;;;4.22;;
55270;SDS011;41132;47.162;9.470;2023-02-28T04:31:28;8.23;;;4.72;;
55270;SDS011;41132;47.162;9.470;2023-02-28T04:33:53;8.73;;;4.45;;
55270;SDS011;41132;47.162;9.470;2023-02-28T04:36:19;7.72;;;4.53;;
55270;SDS011;41132;47.162;9.470;2023-02-28T05:35:38;9.02;;;4.88;;
55270;SDS011;41132;47.162;9.470;2023-02-28T05:38:07;7.78;;;4.38;;
55270;SDS011;41132;47.162;9.470;2023-02-28T05:40:33;10.43;;;5.03;;
55270;SDS011;41132;47.162;9.470;2023-02-28T05:42:59;9.13;;;4.57;;
55270;SDS011;41132;47.162;9.470;2023-02-28T05:45:25;8.90;;;4.90;;
55270;SDS011;41132;47.162;9.470;2023-02-28T05:47:54;9.27;;;5.05;;
55270;SDS011;41132;47.162;9.470;2023-02-28T05:50:20;8.27;;;4.28;;
55270;SDS011;41132;47.162;9.470;2023-02-28T05:52:49;9.02;;;5.05;;
55270;SDS011;41132;47.162;9.470;2023-02-28T05:55:15;9.40;;;5.10;;
55270;SDS011;41132;47.162;9.470;2023-02-28T05:57:41;9.07;;;4.80;;
55270;SDS011;41132;47.162;9.470;2023-02-28T06:00:07;10.25;;;5.15;;
55270;SDS011;41132;47.162;9.470;2023-02-28T06:02:33;8.70;;;5.05;;
55270;SDS011;41132;47.162;9.470;2023-02-28T06:04:58;7.47;;;4.72;;
55270;SDS011;41132;47.162;9.470;2023-02-28T06:07:24;9.50;;;5.10;;
55270;SDS011;41132;47.162;9.470;2023-02-28T06:09:49;8.43;;;5.18;;
55270;SDS011;41132;47.162;9.470;2023-02-28T06:12:14;9.95;;;5.93;;
55270;SDS011;41132;47.162;9.470;2023-02-28T06:14:40;8.75;;;5.47;;
55270;SDS011;41132;47.162;9.470;2023-02-28T06:17:05;9.77;;;5.35;;
55270;SDS011;41132;47.162;9.470;2023-02-28T06:19:31;8.82;;;4.90;;
55270;SDS011;41132;47.162;9.470;2023-02-28T06:21:56;7.80;;;5.10;;
55270;SDS011;41132;47.162;9.470;2023-02-28T06:24:23;10.20;;;5.40;;
55270;SDS011;41132;47.162;9.470;2023-02-28T06:26:50;10.82;;;6.07;;
55270;SDS011;41132;47.162;9.470;2023-02-28T06:44:45;8.80;;;4.95;;
55270;SDS011;41132;47.162;9.470;2023-02-28T06:47:11;8.45;;;5.28;;
55270;SDS011;41132;47.162;9.470;2023-02-28T06:49:36;8.57;;;5.35;;
55270;SDS011;41132;47.162;9.470;2023-02-28T06:52:02;10.02;;;5.65;;
55270;SDS011;41132;47.162;9.470;2023-02-28T06:54:27;7.70;;;4.75;;
55270;SDS011;41132;47.162;9.470;2023-02-28T06:56:53;9.38;;;4.78;;
55270;SDS011;41132;47.162;9.470;2023-02-28T06:59:19;7.80;;;4.53;;
55270;SDS011;41132;47.162;9.470;2023-02-28T07:01:45;8.25;;;5.13;;
55270;SDS011;41132;47.162;9.470;2023-02-28T07:04:11;9.23;;;5.45;;
55270;SDS011;41132;47.162;9.470;2023-02-28T07:06:38;8.65;;;5.05;;
55270;SDS011;41132;47.162;9.470;2023-02-28T07:09:03;8.68;;;5.40;;
55270;SDS011;41132;47.162;9.470;2023-02-28T07:11:29;8.02;;;4.75;;
55270;SDS011;41132;47.162;9.470;2023-02-28T07:13:54;9.52;;;5.60;;
55270;SDS011;41132;47.162;9.470;2023-02-28T07:16:21;9.80;;;5.35;;
55270;SDS011;41132;47.162;9.470;2023-02-28T07:18:48;8.02;;;4.88;;
55270;SDS011;41132;47.162;9.470;2023-02-28T07:21:13;10.35;;;5.60;;
55270;SDS011;41132;47.162;9.470;2023-02-28T07:23:39;13.75;;;6.20;;
55270;SDS011;41132;47.162;9.470;2023-02-28T07:26:06;9.55;;;5.72;;
55270;SDS011;41132;47.162;9.470;2023-02-28T07:28:36;8.13;;;4.72;;
55270;SDS011;41132;47.162;9.470;2023-02-28T07:31:05;9.35;;;5.85;;
55270;SDS011;41132;47.162;9.470;2023-02-28T07:33:30;9.82;;;5.10;;
55270;SDS011;41132;47.162;9.470;2023-02-28T07:36:00;10.90;;;5.80;;
55270;SDS011;41132;47.162;9.470;2023-02-28T07:38:29;9.30;;;5.50;;
55270;SDS011;41132;47.162;9.470;2023-02-28T07:40:55;8.50;;;5.43;;
55270;SDS011;41132;47.162;9.470;2023-02-28T07:43:20;8.63;;;5.38;;
55270;SDS011;41132;47.162;9.470;2023-02-28T07:45:46;10.10;;;5.13;;
55270;SDS011;41132;47.162;9.470;2023-02-28T07:48:11;11.25;;;5.50;;
55270;SDS011;41132;47.162;9.470;2023-02-28T07:50:36;9.88;;;5.15;;
55270;SDS011;41132;47.162;9.470;2023-02-28T07:53:02;8.20;;;5.28;;
55270;SDS011;41132;47.162;9.470;2023-02-28T07:55:27;8.85;;;6.20;;
55270;SDS011;41132;47.162;9.470;2023-02-28T07:57:53;9.02;;;5.50;;
55270;SDS011;41132;47.162;9.470;2023-02-28T08:00:19;8.98;;;5.55;;
55270;SDS011;41132;47.162;9.470;2023-02-28T08:02:44;8.30;;;5.18;;
55270;SDS011;41132;47.162;9.470;2023-02-28T08:05:11;10.00;;;5.72;;
55270;SDS011;41132;47.162;9.470;2023-02-28T08:07:36;10.27;;;5.70;;
55270;SDS011;41132;47.162;9.470;2023-02-28T08:10:02;8.68;;;5.30;;
55270;SDS011;41132;47.162;9.470;2023-02-28T08:12:30;8.65;;;5.57;;
55270;SDS011;41132;47.162;9.470;2023-02-28T08:14:55;8.35;;;5.80;;
55270;SDS011;41132;47.162;9.470;2023-02-28T08:17:21;8.82;;;5.60;;
55270;SDS011;41132;47.162;9.470;2023-02-28T08:19:46;10.00;;;6.47;;
55270;SDS011;41132;47.162;9.470;2023-02-28T08:22:12;9.32;;;5.78;;
55270;SDS011;41132;47.162;9.470;2023-02-28T08:24:37;9.68;;;5.65;;
55270;SDS011;41132;47.162;9.470;2023-02-28T08:32:13;10.65;;;6.32;;
55270;SDS011;41132;47.162;9.470;2023-02-28T08:34:39;9.43;;;5.95;;
55270;SDS011;41132;47.162;9.470;2023-02-28T08:37:05;9.40;;;5.78;;
55270;SDS011;41132;47.162;9.470;2023-02-28T08:44:40;9.32;;;6.07;;
55270;SDS011;41132;47.162;9.470;2023-02-28T08:47:05;9.50;;;6.10;;
55270;SDS011;41132;47.162;9.470;2023-02-28T08:49:31;9.38;;;5.72;;
55270;SDS011;41132;47.162;9.470;2023-02-28T08:51:56;9.30;;;6.13;;
55270;SDS011;41132;47.162;9.470;2023-02-28T08:54:22;10.05;;;5.22;;
55270;SDS011;41132;47.162;9.470;2023-02-28T08:56:48;9.50;;;6.03;;
55270;SDS011;41132;47.162;9.470;2023-02-28T08:59:14;9.05;;;5.38;;
55270;SDS011;41132;47.162;9.470;2023-02-28T09:01:39;8.98;;;5.95;;
55270;SDS011;41132;47.162;9.470;2023-02-28T09:04:06;10.82;;;5.47;;
55270;SDS011;41132;47.162;9.470;2023-02-28T09:06:33;9.70;;;5.90;;
55270;SDS011;41132;47.162;9.470;2023-02-28T09:08:59;9.70;;;5.32;;
55270;SDS011;41132;47.162;9.470;2023-02-28T09:11:26;11.00;;;6.80;;
55270;SDS011;41132;47.162;9.470;2023-02-28T09:13:52;10.48;;;6.47;;
55270;SDS011;41132;47.162;9.470;2023-02-28T09:16:18;10.45;;;5.68;;
55270;SDS011;41132;47.162;9.470;2023-02-28T09:18:44;11.15;;;6.28;;
55270;SDS011;41132;47.162;9.470;2023-02-28T09:21:11;8.77;;;6.22;;
55270;SDS011;41132;47.162;9.470;2023-02-28T09:23:39;10.98;;;6.50;;
55270;SDS011;41132;47.162;9.470;2023-02-28T09:26:06;10.80;;;7.10;;
55270;SDS011;41132;47.162;9.470;2023-02-28T09:28:32;10.77;;;6.38;;
55270;SDS011;41132;47.162;9.470;2023-02-28T09:30:57;11.15;;;6.55;;
55270;SDS011;41132;47.162;9.470;2023-02-28T09:33:23;11.93;;;6.25;;
55270;SDS011;41132;47.162;9.470;2023-02-28T09:35:49;10.80;;;5.97;;
55270;SDS011;41132;47.162;9.470;2023-02-28T09:38:17;9.88;;;5.88;;
55270;SDS011;41132;47.162;9.470;2023-02-28T09:40:50;11.02;;;5.80;;
55270;SDS011;41132;47.162;9.470;2023-02-28T09:43:19;9.85;;;5.93;;
55270;SDS011;41132;47.162;9.470;2023-02-28T09:45:49;11.40;;;6.68;;
55270;SDS011;41132;47.162;9.470;2023-02-28T09:48:32;11.18;;;6.40;;
55270;SDS011;41132;47.162;9.470;2023-02-28T09:51:05;10.68;;;6.15;;
55270;SDS011;41132;47.162;9.470;2023-02-28T09:53:38;10.07;;;6.82;;
55270;SDS011;41132;47.162;9.470;2023-02-28T09:56:12;9.98;;;6.75;;
55270;SDS011;41132;47.162;9.470;2023-02-28T09:58:53;10.07;;;6.07;;
55270;SDS011;41132;47.162;9.470;2023-02-28T10:01:31;11.65;;;7.05;;
55270;SDS011;41132;47.162;9.470;2023-02-28T10:09:44;10.63;;;6.88;;
55270;SDS011;41132;47.162;9.470;2023-02-28T10:12:12;10.68;;;6.88;;
55270;SDS011;41132;47.162;9.470;2023-02-28T10:14:41;9.57;;;6.35;;
55270;SDS011;41132;47.162;9.470;2023-02-28T10:17:11;12.05;;;6.90;;
55270;SDS011;41132;47.162;9.470;2023-02-28T10:19:56;8.93;;;5.97;;
55270;SDS011;41132;47.162;9.470;2023-02-28T10:25:37;12.20;;;8.50;;
55270;SDS011;41132;47.162;9.470;2023-02-28T10:28:07;11.13;;;7.15;;
55270;SDS011;41132;47.162;9.470;2023-02-28T10:30:39;11.10;;;7.20;;
55270;SDS011;41132;47.162;9.470;2023-02-28T10:33:14;11.73;;;6.80;;
55270;SDS011;41132;47.162;9.470;2023-02-28T10:35:44;10.63;;;6.85;;
55270;SDS011;41132;47.162;9.470;2023-02-28T10:38:14;10.65;;;6.97;;
55270;SDS011;41132;47.162;9.470;2023-02-28T10:40:45;10.27;;;6.57;;
55270;SDS011;41132;47.162;9.470;2023-02-28T10:45:39;9.93;;;6.45;;
55270;SDS011;41132;47.162;9.470;2023-02-28T10:48:40;10.38;;;7.25;;
55270;SDS011;41132;47.162;9.470;2023-02-28T10:51:10;14.02;;;7.03;;
55270;SDS011;41132;47.162;9.470;2023-02-28T10:53:38;9.75;;;6.55;;
55270;SDS011;41132;47.162;9.470;2023-02-28T10:56:14;9.75;;;6.93;;
55270;SDS011;41132;47.162;9.470;2023-02-28T11:01:14;10.40;;;6.93;;
55270;SDS011;41132;47.162;9.470;2023-02-28T11:06:32;9.90;;;6.43;;
55270;SDS011;41132;47.162;9.470;2023-02-28T11:09:00;10.43;;;6.43;;
55270;SDS011;41132;47.162;9.470;2023-02-28T11:11:29;10.85;;;7.00;;
55270;SDS011;41132;47.162;9.470;2023-02-28T11:14:05;12.48;;;7.40;;
55270;SDS011;41132;47.162;9.470;2023-02-28T11:16:36;9.45;;;6.10;;
55270;SDS011;41132;47.162;9.470;2023-02-28T11:19:04;10.73;;;6.80;;
55270;SDS011;41132;47.162;9.470;2023-02-28T11:21:45;9.73;;;6.30;;
55270;SDS011;41132;47.162;9.470;2023-02-28T11:24:30;9.23;;;6.32;;
55270;SDS011;41132;47.162;9.470;2023-02-28T11:27:00;10.23;;;6.75;;
55270;SDS011;41132;47.162;9.470;2023-02-28T11:34:34;11.23;;;6.95;;
55270;SDS011;41132;47.162;9.470;2023-02-28T11:37:00;9.13;;;5.97;;
55270;SDS011;41132;47.162;9.470;2023-02-28T11:39:30;9.90;;;6.97;;
55270;SDS011;41132;47.162;9.470;2023-02-28T11:48:04;11.45;;;6.55;;
55270;SDS011;41132;47.162;9.470;2023-02-28T12:04:39;13.05;;;7.03;;
55270;SDS011;41132;47.162;9.470;2023-02-28T12:18:47;11.65;;;7.35;;
55270;SDS011;41132;47.162;9.470;2023-02-28T12:21:27;10.73;;;7.00;;
55270;SDS011;41132;47.162;9.470;2023-02-28T12:27:19;11.77;;;6.78;;
55270;SDS011;41132;47.162;9.470;2023-02-28T12:29:49;11.23;;;7.32;;
55270;SDS011;41132;47.162;9.470;2023-02-28T12:32:22;8.93;;;5.88;;
55270;SDS011;41132;47.162;9.470;2023-02-28T12:35:25;11.88;;;7.25;;
55270;SDS011;41132;47.162;9.470;2023-02-28T12:38:04;11.52;;;6.97;;
55270;SDS011;41132;47.162;9.470;2023-02-28T12:43:25;11.40;;;6.55;;
55270;SDS011;41132;47.162;9.470;2023-02-28T12:46:00;10.02;;;6.55;;
55270;SDS011;41132;47.162;9.470;2023-02-28T12:48:37;10.30;;;7.30;;
55270;SDS011;41132;47.162;9.470;2023-02-28T12:51:07;11.07;;;7.07;;
55270;SDS011;41132;47.162;9.470;2023-02-28T12:53:54;11.57;;;6.95;;
55270;SDS011;41132;47.162;9.470;2023-02-28T13:05:01;11.13;;;7.07;;
55270;SDS011;41132;47.162;9.470;2023-02-28T13:07:52;10.10;;;6.28;;
55270;SDS011;41132;47.162;9.470;2023-02-28T13:10:23;11.02;;;6.97;;
55270;SDS011;41132;47.162;9.470;2023-02-28T13:12:50;10.48;;;6.25;;
55270;SDS011;41132;47.162;9.470;2023-02-28T13:15:19;12.27;;;7.20;;
55270;SDS011;41132;47.162;9.470;2023-02-28T13:17:51;10.80;;;6.82;;
55270;SDS011;41132;47.162;9.470;2023-02-28T13:20:21;10.35;;;6.85;;
55270;SDS011;41132;47.162;9.470;2023-02-28T13:22:49;9.95;;;6.75;;
55270;SDS011;41132;47.162;9.470;2023-02-28T13:25:51;11.15;;;6.90;;
55270;SDS011;41132;47.162;9.470;2023-02-28T13:28:12;13.07;;;7.15;;
55270;SDS011;41132;47.162;9.470;2023-02-28T13:33:31;10.82;;;6.78;;
55270;SDS011;41132;47.162;9.470;2023-02-28T13:36:26;11.30;;;7.57;;
55270;SDS011;41132;47.162;9.470;2023-02-28T13:38:55;11.15;;;7.00;;
55270;SDS011;41132;47.162;9.470;2023-02-28T13:46:32;11.18;;;7.15;;
55270;SDS011;41132;47.162;9.470;2023-02-28T14:06:07;14.52;;;9.88;;
55270;SDS011;41132;47.162;9.470;2023-02-28T14:08:43;11.55;;;7.28;;
55270;SDS011;41132;47.162;9.470;2023-02-28T14:11:26;10.43;;;6.72;;
55270;SDS011;41132;47.162;9.470;2023-02-28T14:13:57;11.00;;;6.90;;
55270;SDS011;41132;47.162;9.470;2023-02-28T14:16:24;10.65;;;6.93;;
55270;SDS011;41132;47.162;9.470;2023-02-28T14:21:27;13.20;;;7.07;;
55270;SDS011;41132;47.162;9.470;2023-02-28T14:32:30;10.38;;;6.90;;
55270;SDS011;41132;47.162;9.470;2023-02-28T14:37:29;10.48;;;6.82;;
55270;SDS011;41132;47.162;9.470;2023-02-28T14:40:02;10.32;;;6.57;;
55270;SDS011;41132;47.162;9.470;2023-02-28T14:42:33;11.48;;;6.55;;
55270;SDS011;41132;47.162;9.470;2023-02-28T14:45:01;13.85;;;7.95;;
55270;SDS011;41132;47.162;9.470;2023-02-28T14:47:28;10.05;;;5.80;;
55270;SDS011;41132;47.162;9.470;2023-02-28T14:49:57;10.45;;;6.25;;
55270;SDS011;41132;47.162;9.470;2023-02-28T14:52:24;10.40;;;7.13;;
55270;SDS011;41132;47.162;9.470;2023-02-28T14:54:54;12.95;;;7.35;;
55270;SDS011;41132;47.162;9.470;2023-02-28T15:18:17;8.65;;;5.95;;
55270;SDS011;41132;47.162;9.470;2023-02-28T15:20:58;10.35;;;6.78;;
55270;SDS011;41132;47.162;9.470;2023-02-28T15:23:36;11.57;;;7.18;;
55270;SDS011;41132;47.162;9.470;2023-02-28T15:26:02;9.60;;;6.47;;
55270;SDS011;41132;47.162;9.470;2023-02-28T15:28:29;10.50;;;6.38;;
55270;SDS011;41132;47.162;9.470;2023-02-28T15:30:58;30.90;;;20.27;;
55270;SDS011;41132;47.162;9.470;2023-02-28T15:33:26;12.50;;;7.53;;
55270;SDS011;41132;47.162;9.470;2023-02-28T15:36:03;14.73;;;7.47;;
55270;SDS011;41132;47.162;9.470;2023-02-28T15:38:33;11.48;;;6.65;;
55270;SDS011;41132;47.162;9.470;2023-02-28T15:41:00;10.90;;;7.05;;
55270;SDS011;41132;47.162;9.470;2023-02-28T15:43:27;12.10;;;6.70;;
55270;SDS011;41132;47.162;9.470;2023-02-28T15:45:56;11.05;;;6.68;;
55270;SDS011;41132;47.162;9.470;2023-02-28T15:48:23;12.15;;;6.63;;
55270;SDS011;41132;47.162;9.470;2023-02-28T15:51:01;11.65;;;6.93;;
55270;SDS011;41132;47.162;9.470;2023-02-28T15:53:32;13.00;;;7.82;;
55270;SDS011;41132;47.162;9.470;2023-02-28T15:56:02;10.65;;;6.85;;
55270;SDS011;41132;47.162;9.470;2023-02-28T15:58:30;13.60;;;7.18;;
55270;SDS011;41132;47.162;9.470;2023-02-28T16:01:38;11.20;;;7.25;;
55270;SDS011;41132;47.162;9.470;2023-02-28T16:03:50;10.52;;;6.65;;
55270;SDS011;41132;47.162;9.470;2023-02-28T16:06:32;11.05;;;7.07;;
55270;SDS011;41132;47.162;9.470;2023-02-28T16:09:00;11.38;;;7.78;;
55270;SDS011;41132;47.162;9.470;2023-02-28T16:11:26;11.52;;;7.28;;
55270;SDS011;41132;47.162;9.470;2023-02-28T16:13:51;11.52;;;6.93;;
55270;SDS011;41132;47.162;9.470;2023-02-28T16:16:21;11.40;;;7.38;;
55270;SDS011;41132;47.162;9.470;2023-02-28T16:18:49;10.70;;;7.07;;
55270;SDS011;41132;47.162;9.470;2023-02-28T16:21:15;11.90;;;7.10;;
55270;SDS011;41132;47.162;9.470;2023-02-28T16:23:41;10.13;;;7.15;;
55270;SDS011;41132;47.162;9.470;2023-02-28T16:26:06;12.05;;;7.63;;
55270;SDS011;41132;47.162;9.470;2023-02-28T16:28:34;11.23;;;6.65;;
55270;SDS011;41132;47.162;9.470;2023-02-28T16:31:04;11.00;;;6.85;;
55270;SDS011;41132;47.162;9.470;2023-02-28T16:33:32;11.45;;;6.63;;
55270;SDS011;41132;47.162;9.470;2023-02-28T16:36:02;10.98;;;6.72;;
55270;SDS011;41132;47.162;9.470;2023-02-28T16:38:28;12.93;;;7.90;;
55270;SDS011;41132;47.162;9.470;2023-02-28T16:40:55;12.52;;;7.28;;
55270;SDS011;41132;47.162;9.470;2023-02-28T16:43:24;11.20;;;7.28;;
55270;SDS011;41132;47.162;9.470;2023-02-28T16:45:54;11.40;;;7.43;;
55270;SDS011;41132;47.162;9.470;2023-02-28T16:48:22;10.38;;;7.22;;
55270;SDS011;41132;47.162;9.470;2023-02-28T16:50:48;11.77;;;6.95;;
55270;SDS011;41132;47.162;9.470;2023-02-28T16:53:13;11.93;;;7.20;;
55270;SDS011;41132;47.162;9.470;2023-02-28T16:55:39;10.98;;;7.35;;
55270;SDS011;41132;47.162;9.470;2023-02-28T16:58:05;13.25;;;6.97;;
55270;SDS011;41132;47.162;9.470;2023-02-28T17:00:31;11.10;;;7.53;;
55270;SDS011;41132;47.162;9.470;2023-02-28T17:02:57;11.85;;;7.68;;
55270;SDS011;41132;47.162;9.470;2023-02-28T17:05:27;11.85;;;7.18;;
55270;SDS011;41132;47.162;9.470;2023-02-28T17:07:58;12.23;;;7.43;;
55270;SDS011;41132;47.162;9.470;2023-02-28T17:10:24;13.88;;;7.93;;
55270;SDS011;41132;47.162;9.470;2023-02-28T17:12:51;13.85;;;8.05;;
55270;SDS011;41132;47.162;9.470;2023-02-28T17:17:48;11.20;;;6.88;;
55270;SDS011;41132;47.162;9.470;2023-02-28T17:20:16;11.75;;;7.20;;
55270;SDS011;41132;47.162;9.470;2023-02-28T17:22:43;13.98;;;7.57;;
55270;SDS011;41132;47.162;9.470;2023-02-28T17:25:09;13.18;;;7.97;;
55270;SDS011;41132;47.162;9.470;2023-02-28T17:27:35;14.48;;;7.60;;
55270;SDS011;41132;47.162;9.470;2023-02-28T17:30:01;12.23;;;7.68;;
55270;SDS011;41132;47.162;9.470;2023-02-28T17:32:28;11.38;;;7.53;;
55270;SDS011;41132;47.162;9.470;2023-02-28T17:34:53;13.60;;;7.60;;
55270;SDS011;41132;47.162;9.470;2023-02-28T17:37:18;10.48;;;6.93;;
55270;SDS011;41132;47.162;9.470;2023-02-28T17:39:44;13.07;;;7.70;;
55270;SDS011;41132;47.162;9.470;2023-02-28T17:42:09;10.65;;;7.15;;
55270;SDS011;41132;47.162;9.470;2023-02-28T17:44:35;16.20;;;7.90;;
55270;SDS011;41132;47.162;9.470;2023-02-28T17:47:00;12.77;;;8.20;;
55270;SDS011;41132;47.162;9.470;2023-02-28T17:49:26;12.18;;;7.25;;
55270;SDS011;41132;47.162;9.470;2023-02-28T17:51:52;12.60;;;7.07;;
55270;SDS011;41132;47.162;9.470;2023-02-28T17:54:17;12.80;;;8.00;;
55270;SDS011;41132;47.162;9.470;2023-02-28T17:56:42;14.52;;;8.02;;
55270;SDS011;41132;47.162;9.470;2023-02-28T17:59:08;11.15;;;7.93;;
55270;SDS011;41132;47.162;9.470;2023-02-28T18:01:35;11.85;;;7.88;;
55270;SDS011;41132;47.162;9.470;2023-02-28T18:04:00;13.23;;;7.80;;
55270;SDS011;41132;47.162;9.470;2023-02-28T18:06:38;11.95;;;7.47;;
55270;SDS011;41132;47.162;9.470;2023-02-28T18:09:15;12.98;;;8.65;;
55270;SDS011;41132;47.162;9.470;2023-02-28T18:11:42;12.68;;;8.27;;
55270;SDS011;41132;47.162;9.470;2023-02-28T18:14:12;13.98;;;8.77;;
55270;SDS011;41132;47.162;9.470;2023-02-28T18:16:38;13.32;;;9.15;;
55270;SDS011;41132;47.162;9.470;2023-02-28T18:19:03;15.32;;;8.45;;
55270;SDS011;41132;47.162;9.470;2023-02-28T18:21:29;14.38;;;9.75;;
55270;SDS011;41132;47.162;9.470;2023-02-28T18:23:55;13.85;;;8.52;;
55270;SDS011;41132;47.162;9.470;2023-02-28T18:26:21;13.10;;;7.90;;
55270;SDS011;41132;47.162;9.470;2023-02-28T18:28:47;12.13;;;7.95;;
55270;SDS011;41132;47.162;9.470;2023-02-28T18:31:14;14.95;;;8.95;;
55270;SDS011;41132;47.162;9.470;2023-02-28T18:33:51;13.23;;;8.27;;
55270;SDS011;41132;47.162;9.470;2023-02-28T18:36:19;11.98;;;8.25;;
55270;SDS011;41132;47.162;9.470;2023-02-28T18:38:46;13.10;;;8.48;;
55270;SDS011;41132;47.162;9.470;2023-02-28T18:41:12;14.57;;;8.93;;
55270;SDS011;41132;47.162;9.470;2023-02-28T18:43:38;14.10;;;8.65;;
55270;SDS011;41132;47.162;9.470;2023-02-28T18:46:11;13.88;;;8.65;;
55270;SDS011;41132;47.162;9.470;2023-02-28T18:48:37;14.05;;;7.80;;
55270;SDS011;41132;47.162;9.470;2023-02-28T18:51:17;14.90;;;10.07;;
55270;SDS011;41132;47.162;9.470;2023-02-28T18:53:44;12.57;;;7.95;;
55270;SDS011;41132;47.162;9.470;2023-02-28T18:56:11;12.60;;;8.57;;
55270;SDS011;41132;47.162;9.470;2023-02-28T18:58:38;13.20;;;9.55;;
55270;SDS011;41132;47.162;9.470;2023-02-28T19:01:06;13.30;;;8.35;;
55270;SDS011;41132;47.162;9.470;2023-02-28T19:03:39;16.67;;;9.10;;
55270;SDS011;41132;47.162;9.470;2023-02-28T19:06:04;13.82;;;8.98;;
55270;SDS011;41132;47.162;9.470;2023-02-28T19:08:30;13.05;;;8.23;;
55270;SDS011;41132;47.162;9.470;2023-02-28T19:10:55;14.45;;;9.15;;
55270;SDS011;41132;47.162;9.470;2023-02-28T19:13:21;14.75;;;9.25;;
55270;SDS011;41132;47.162;9.470;2023-02-28T19:15:46;15.35;;;9.68;;
55270;SDS011;41132;47.162;9.470;2023-02-28T19:18:12;15.15;;;9.27;;
55270;SDS011;41132;47.162;9.470;2023-02-28T19:20:37;12.68;;;9.07;;
55270;SDS011;41132;47.162;9.470;2023-02-28T19:23:03;13.00;;;8.82;;
55270;SDS011;41132;47.162;9.470;2023-02-28T19:25:29;16.33;;;9.35;;
55270;SDS011;41132;47.162;9.470;2023-02-28T19:27:54;13.35;;;8.63;;
55270;SDS011;41132;47.162;9.470;2023-02-28T19:30:21;12.63;;;8.98;;
55270;SDS011;41132;47.162;9.470;2023-02-28T19:32:47;15.57;;;9.52;;
55270;SDS011;41132;47.162;9.470;2023-02-28T19:35:13;15.70;;;9.18;;
55270;SDS011;41132;47.162;9.470;2023-02-28T19:37:39;13.73;;;9.32;;